createdAt,value
2018-06-18T00:00:56.996Z,989.23
2018-06-18T00:01:56.947Z,989.20
2018-06-18T00:02:56.891Z,989.21
2018-06-18T00:03:56.836Z,989.23
2018-06-18T00:04:56.784Z,989.19
2018-06-18T00:05:56.732Z,989.16
2018-06-18T00:06:56.681Z,989.17
2018-06-18T00:07:56.628Z,989.18
2018-06-18T00:08:56.572Z,989.18
2018-06-18T00:09:56.519Z,989.20
2018-06-18T00:10:56.466Z,989.15
2018-06-18T00:11:56.415Z,989.15
2018-06-18T00:12:56.361Z,989.17
2018-06-18T00:13:56.311Z,989.12
2018-06-18T00:14:56.256Z,989.11
2018-06-18T00:15:56.200Z,989.10
2018-06-18T00:16:56.146Z,989.14
2018-06-18T00:17:56.093Z,989.06
2018-06-18T00:18:56.042Z,989.12
2018-06-18T00:19:55.988Z,989.11
2018-06-18T00:20:55.935Z,989.13
2018-06-18T00:21:55.880Z,989.18
2018-06-18T00:22:55.829Z,989.20
2018-06-18T00:23:55.772Z,989.20
2018-06-18T00:24:55.721Z,989.21
2018-06-18T00:25:55.666Z,989.22
2018-06-18T00:26:55.615Z,989.24
2018-06-18T00:27:55.558Z,989.24
2018-06-18T00:28:55.506Z,989.23
2018-06-18T00:29:55.452Z,989.25
2018-06-18T00:30:55.399Z,989.26
2018-06-18T00:31:55.343Z,989.27
2018-06-18T00:32:55.291Z,989.27
2018-06-18T00:33:55.240Z,989.28
2018-06-18T00:34:55.185Z,989.29
2018-06-18T00:35:55.139Z,989.25
2018-06-18T00:36:55.077Z,989.29
2018-06-18T00:37:55.022Z,989.28
2018-06-18T00:38:54.969Z,989.26
2018-06-18T00:39:54.915Z,989.29
2018-06-18T00:40:54.861Z,989.29
2018-06-18T00:41:54.808Z,989.32
2018-06-18T00:42:54.753Z,989.37
2018-06-18T00:43:54.698Z,989.34
2018-06-18T00:44:54.648Z,989.33
2018-06-18T00:45:54.590Z,989.32
2018-06-18T00:46:54.537Z,989.38
2018-06-18T00:47:54.485Z,989.34
2018-06-18T00:48:54.428Z,989.38
2018-06-18T00:49:54.379Z,989.38
2018-06-18T00:50:54.326Z,989.34
2018-06-18T00:51:54.276Z,989.39
2018-06-18T00:52:54.215Z,989.36
2018-06-18T00:53:54.158Z,989.37
2018-06-18T00:54:54.104Z,989.37
2018-06-18T00:55:54.147Z,989.39
2018-06-18T00:56:53.999Z,989.34
2018-06-18T00:57:53.945Z,989.42
2018-06-18T00:58:53.890Z,989.42
2018-06-18T00:59:53.834Z,989.43
2018-06-18T01:00:53.782Z,989.38
2018-06-18T01:01:53.728Z,989.38
2018-06-18T01:02:53.672Z,989.39
2018-06-18T01:03:53.618Z,989.41
2018-06-18T01:04:53.563Z,989.38
2018-06-18T01:05:53.510Z,989.39
2018-06-18T01:06:53.454Z,989.41
2018-06-18T01:07:53.405Z,989.42
2018-06-18T01:08:53.347Z,989.42
2018-06-18T01:09:53.294Z,989.47
2018-06-18T01:10:53.238Z,989.46
2018-06-18T01:11:53.185Z,989.41
2018-06-18T01:12:53.131Z,989.37
2018-06-18T01:13:53.076Z,989.35
2018-06-18T01:14:53.023Z,989.36
2018-06-18T01:15:52.970Z,989.33
2018-06-18T01:16:52.916Z,989.32
2018-06-18T01:17:52.862Z,989.29
2018-06-18T01:18:52.808Z,989.32
2018-06-18T01:19:52.752Z,989.27
2018-06-18T01:20:52.700Z,989.29
2018-06-18T01:21:52.645Z,989.33
2018-06-18T01:22:52.590Z,989.34
2018-06-18T01:23:52.537Z,989.32
2018-06-18T01:24:52.482Z,989.35
2018-06-18T01:25:52.429Z,989.34
2018-06-18T01:26:52.374Z,989.39
2018-06-18T01:27:52.319Z,989.40
2018-06-18T01:28:52.267Z,989.38
2018-06-18T01:29:52.213Z,989.40
2018-06-18T01:30:52.159Z,989.46
2018-06-18T01:31:52.104Z,989.49
2018-06-18T01:32:52.050Z,989.42
2018-06-18T01:33:51.996Z,989.43
2018-06-18T01:34:51.944Z,989.42
2018-06-18T01:35:51.886Z,989.44
2018-06-18T01:36:51.846Z,989.47
2018-06-18T01:37:51.780Z,989.49
2018-06-18T01:38:51.735Z,989.49
2018-06-18T01:39:51.671Z,989.54
2018-06-18T01:40:51.618Z,989.54
2018-06-18T01:41:51.564Z,989.52
2018-06-18T01:42:51.510Z,989.51
2018-06-18T01:43:51.460Z,989.53
2018-06-18T01:44:51.401Z,989.49
2018-06-18T01:45:51.348Z,989.49
2018-06-18T01:46:51.296Z,989.53
2018-06-18T01:47:51.239Z,989.53
2018-06-18T01:48:51.185Z,989.52
2018-06-18T01:49:51.131Z,989.55
2018-06-18T01:50:51.080Z,989.51
2018-06-18T01:51:51.028Z,989.53
2018-06-18T01:52:50.968Z,989.51
2018-06-18T01:53:50.917Z,989.46
2018-06-18T01:54:50.861Z,989.41
2018-06-18T01:55:50.808Z,989.43
2018-06-18T01:56:50.752Z,989.43
2018-06-18T01:57:50.699Z,989.41
2018-06-18T01:58:50.644Z,989.39
2018-06-18T01:59:50.591Z,989.41
2018-06-18T02:00:50.536Z,989.43
2018-06-18T02:01:50.483Z,989.44
2018-06-18T02:02:50.433Z,989.42
2018-06-18T02:03:50.376Z,989.44
2018-06-18T02:04:50.321Z,989.44
2018-06-18T02:05:50.269Z,989.47
2018-06-18T02:06:50.214Z,989.48
2018-06-18T02:07:50.183Z,989.48
2018-06-18T02:08:50.112Z,989.50
2018-06-18T02:09:50.065Z,989.49
2018-06-18T02:10:50.000Z,989.47
2018-06-18T02:11:49.949Z,989.41
2018-06-18T02:12:49.892Z,989.42
2018-06-18T02:13:49.837Z,989.43
2018-06-18T02:14:49.783Z,989.42
2018-06-18T02:15:49.731Z,989.42
2018-06-18T02:16:49.676Z,989.37
2018-06-18T02:17:49.623Z,989.36
2018-06-18T02:18:49.568Z,989.38
2018-06-18T02:19:49.512Z,989.36
2018-06-18T02:20:49.459Z,989.35
2018-06-18T02:21:49.553Z,989.33
2018-06-18T02:22:49.352Z,989.32
2018-06-18T02:23:49.298Z,989.33
2018-06-18T02:24:49.246Z,989.32
2018-06-18T02:25:49.190Z,989.34
2018-06-18T02:26:49.136Z,989.37
2018-06-18T02:27:49.082Z,989.35
2018-06-18T02:28:49.031Z,989.41
2018-06-18T02:29:48.981Z,989.41
2018-06-18T02:30:48.920Z,989.44
2018-06-18T02:31:48.869Z,989.40
2018-06-18T02:32:48.815Z,989.51
2018-06-18T02:33:48.761Z,989.49
2018-06-18T02:34:48.717Z,989.52
2018-06-18T02:35:48.652Z,989.54
2018-06-18T02:36:48.598Z,989.54
2018-06-18T02:37:48.543Z,989.53
2018-06-18T02:38:48.491Z,989.55
2018-06-18T02:39:48.438Z,989.52
2018-06-18T02:40:48.390Z,989.62
2018-06-18T02:41:48.327Z,989.59
2018-06-18T02:42:48.274Z,989.60
2018-06-18T02:43:48.223Z,989.58
2018-06-18T02:44:48.167Z,989.59
2018-06-18T02:45:48.113Z,989.56
2018-06-18T02:46:48.060Z,989.58
2018-06-18T02:47:48.011Z,989.56
2018-06-18T02:48:47.967Z,989.59
2018-06-18T02:49:47.902Z,989.59
2018-06-18T02:50:47.845Z,989.55
2018-06-18T02:51:47.789Z,989.56
2018-06-18T02:52:47.739Z,989.55
2018-06-18T02:53:47.683Z,989.53
2018-06-18T02:54:47.631Z,989.55
2018-06-18T02:55:47.576Z,989.54
2018-06-18T02:56:47.521Z,989.52
2018-06-18T02:57:47.470Z,989.51
2018-06-18T02:58:47.416Z,989.46
2018-06-18T02:59:47.360Z,989.51
2018-06-18T03:00:47.306Z,989.47
2018-06-18T03:01:47.253Z,989.49
2018-06-18T03:02:47.202Z,989.49
2018-06-18T03:03:47.144Z,989.52
2018-06-18T03:04:47.090Z,989.55
2018-06-18T03:05:47.037Z,989.59
2018-06-18T03:06:46.983Z,989.54
2018-06-18T03:07:46.927Z,989.60
2018-06-18T03:08:46.873Z,989.61
2018-06-18T03:09:46.823Z,989.61
2018-06-18T03:10:46.767Z,989.61
2018-06-18T03:11:46.716Z,989.62
2018-06-18T03:12:46.661Z,989.66
2018-06-18T03:13:46.604Z,989.64
2018-06-18T03:14:46.552Z,989.66
2018-06-18T03:15:46.493Z,989.66
2018-06-18T03:16:46.441Z,989.65
2018-06-18T03:17:46.389Z,989.68
2018-06-18T03:18:46.333Z,989.67
2018-06-18T03:19:46.277Z,989.63
2018-06-18T03:20:46.224Z,989.62
2018-06-18T03:21:46.170Z,989.63
2018-06-18T03:22:46.117Z,989.61
2018-06-18T03:23:46.062Z,989.58
2018-06-18T03:24:46.008Z,989.58
2018-06-18T03:25:45.954Z,989.57
2018-06-18T03:26:45.900Z,989.57
2018-06-18T03:27:45.845Z,989.55
2018-06-18T03:28:45.791Z,989.54
2018-06-18T03:29:45.736Z,989.59
2018-06-18T03:30:45.685Z,989.58
2018-06-18T03:31:45.629Z,989.60
2018-06-18T03:32:45.578Z,989.63
2018-06-18T03:33:45.519Z,989.64
2018-06-18T03:34:45.469Z,989.69
2018-06-18T03:35:45.413Z,989.72
2018-06-18T03:36:45.358Z,989.78
2018-06-18T03:37:45.304Z,989.81
2018-06-18T03:38:45.251Z,989.82
2018-06-18T03:39:45.199Z,989.80
2018-06-18T03:40:45.141Z,989.74
2018-06-18T03:41:45.093Z,989.78
2018-06-18T03:42:45.035Z,989.79
2018-06-18T03:43:44.979Z,989.76
2018-06-18T03:44:44.925Z,989.75
2018-06-18T03:45:44.872Z,989.70
2018-06-18T03:46:44.819Z,989.65
2018-06-18T03:47:44.761Z,989.65
2018-06-18T03:48:44.708Z,989.64
2018-06-18T03:49:44.656Z,989.66
2018-06-18T03:50:44.601Z,989.67
2018-06-18T03:51:44.546Z,989.70
2018-06-18T03:52:44.494Z,989.69
2018-06-18T03:53:44.438Z,989.71
2018-06-18T03:54:44.384Z,989.71
2018-06-18T03:55:44.334Z,989.71
2018-06-18T03:56:44.276Z,989.72
2018-06-18T03:57:44.222Z,989.76
2018-06-18T03:58:44.172Z,989.78
2018-06-18T03:59:44.113Z,989.73
2018-06-18T04:00:44.060Z,989.71
2018-06-18T04:01:44.007Z,989.75
2018-06-18T04:02:43.953Z,989.74
2018-06-18T04:03:43.897Z,989.71
2018-06-18T04:04:43.844Z,989.77
2018-06-18T04:05:43.790Z,989.71
2018-06-18T04:06:43.737Z,989.75
2018-06-18T04:07:43.692Z,989.70
2018-06-18T04:08:43.629Z,989.71
2018-06-18T04:09:43.575Z,989.77
2018-06-18T04:10:43.524Z,989.79
2018-06-18T04:11:43.465Z,989.83
2018-06-18T04:12:43.411Z,989.84
2018-06-18T04:13:43.357Z,989.91
2018-06-18T04:14:43.309Z,989.86
2018-06-18T04:15:43.248Z,989.92
2018-06-18T04:16:43.196Z,989.88
2018-06-18T04:17:43.143Z,989.88
2018-06-18T04:18:43.088Z,989.87
2018-06-18T04:19:43.033Z,989.92
2018-06-18T04:20:42.981Z,989.92
2018-06-18T04:21:42.926Z,989.93
2018-06-18T04:22:42.873Z,989.91
2018-06-18T04:23:42.818Z,989.92
2018-06-18T04:24:42.767Z,989.94
2018-06-18T04:25:42.709Z,989.94
2018-06-18T04:26:42.659Z,989.87
2018-06-18T04:27:42.602Z,989.84
2018-06-18T04:28:42.550Z,989.86
2018-06-18T04:29:42.497Z,989.84
2018-06-18T04:30:42.443Z,989.82
2018-06-18T04:31:42.386Z,989.79
2018-06-18T04:32:42.332Z,989.81
2018-06-18T04:33:42.278Z,989.83
2018-06-18T04:34:42.225Z,989.87
2018-06-18T04:35:42.170Z,989.89
2018-06-18T04:36:42.116Z,989.93
2018-06-18T04:37:42.208Z,989.99
2018-06-18T04:38:42.010Z,990.00
2018-06-18T04:39:41.957Z,990.02
2018-06-18T04:40:41.908Z,989.99
2018-06-18T04:41:41.854Z,989.99
2018-06-18T04:42:41.802Z,990.00
2018-06-18T04:43:41.739Z,989.99
2018-06-18T04:44:41.703Z,989.97
2018-06-18T04:45:41.634Z,990.01
2018-06-18T04:46:41.580Z,990.03
2018-06-18T04:47:41.526Z,990.06
2018-06-18T04:48:41.472Z,990.01
2018-06-18T04:49:41.420Z,990.07
2018-06-18T04:50:41.365Z,990.04
2018-06-18T04:51:41.313Z,990.08
2018-06-18T04:52:41.258Z,990.10
2018-06-18T04:53:41.220Z,990.08
2018-06-18T04:54:41.150Z,990.10
2018-06-18T04:55:41.094Z,990.07
2018-06-18T04:56:41.117Z,990.07
2018-06-18T04:57:40.995Z,990.06
2018-06-18T04:58:40.935Z,990.10
2018-06-18T04:59:40.898Z,990.11
2018-06-18T05:00:40.832Z,990.13
2018-06-18T05:01:40.778Z,990.20
2018-06-18T05:02:40.721Z,990.21
2018-06-18T05:03:40.665Z,990.21
2018-06-18T05:04:40.621Z,990.29
2018-06-18T05:05:40.558Z,990.29
2018-06-18T05:06:40.505Z,990.28
2018-06-18T05:07:40.450Z,990.29
2018-06-18T05:08:40.396Z,990.24
2018-06-18T05:09:40.342Z,990.23
2018-06-18T05:10:40.289Z,990.21
2018-06-18T05:11:40.236Z,990.14
2018-06-18T05:12:40.185Z,990.11
2018-06-18T05:13:40.129Z,990.10
2018-06-18T05:14:40.075Z,990.13
2018-06-18T05:15:40.020Z,990.14
2018-06-18T05:16:39.966Z,990.13
2018-06-18T05:17:39.912Z,990.12
2018-06-18T05:18:39.860Z,990.12
2018-06-18T05:19:39.805Z,990.10
2018-06-18T05:20:39.789Z,990.10
2018-06-18T05:21:39.697Z,990.06
2018-06-18T05:22:39.655Z,990.05
2018-06-18T05:23:39.589Z,990.02
2018-06-18T05:24:39.537Z,990.05
2018-06-18T05:25:39.485Z,990.01
2018-06-18T05:26:39.432Z,989.97
2018-06-18T05:27:39.374Z,990.00
2018-06-18T05:28:39.326Z,990.03
2018-06-18T05:29:39.267Z,990.08
2018-06-18T05:30:39.213Z,990.04
2018-06-18T05:31:39.160Z,990.06
2018-06-18T05:32:39.126Z,990.08
2018-06-18T05:33:39.056Z,990.09
2018-06-18T05:34:39.004Z,990.10
2018-06-18T05:35:38.944Z,990.15
2018-06-18T05:36:38.892Z,990.12
2018-06-18T05:37:38.837Z,990.12
2018-06-18T05:38:38.785Z,990.14
2018-06-18T05:39:38.734Z,990.17
2018-06-18T05:40:38.678Z,990.18
2018-06-18T05:41:38.625Z,990.21
2018-06-18T05:42:38.576Z,990.17
2018-06-18T05:43:38.538Z,990.17
2018-06-18T05:44:38.470Z,990.14
2018-06-18T05:45:38.410Z,990.14
2018-06-18T05:46:38.359Z,990.12
2018-06-18T05:47:38.305Z,990.15
2018-06-18T05:48:38.260Z,990.14
2018-06-18T05:49:38.198Z,990.15
2018-06-18T05:50:38.156Z,990.20
2018-06-18T05:51:38.091Z,990.20
2018-06-18T05:52:38.043Z,990.21
2018-06-18T05:53:37.987Z,990.24
2018-06-18T05:54:37.935Z,990.24
2018-06-18T05:55:37.883Z,990.23
2018-06-18T05:56:37.828Z,990.22
2018-06-18T05:57:37.773Z,990.20
2018-06-18T05:58:37.722Z,990.21
2018-06-18T05:59:37.671Z,990.21
2018-06-18T06:00:37.615Z,990.18
2018-06-18T06:01:37.565Z,990.19
2018-06-18T06:02:37.510Z,990.22
2018-06-18T06:03:37.455Z,990.20
2018-06-18T06:04:37.403Z,990.21
2018-06-18T06:05:37.350Z,990.24
2018-06-18T06:06:37.299Z,990.20
2018-06-18T06:07:37.277Z,990.17
2018-06-18T06:08:37.195Z,990.15
2018-06-18T06:09:37.139Z,990.14
2018-06-18T06:10:37.087Z,990.16
2018-06-18T06:11:37.037Z,990.15
2018-06-18T06:12:36.982Z,990.14
2018-06-18T06:13:36.930Z,990.14
2018-06-18T06:14:36.885Z,990.13
2018-06-18T06:15:36.823Z,990.14
2018-06-18T06:16:36.771Z,990.16
2018-06-18T06:17:36.720Z,990.12
2018-06-18T06:18:36.667Z,990.14
2018-06-18T06:19:36.613Z,990.13
2018-06-18T06:20:36.562Z,990.12
2018-06-18T06:21:36.508Z,990.10
2018-06-18T06:22:36.458Z,990.14
2018-06-18T06:23:36.431Z,990.13
2018-06-18T06:24:36.357Z,990.11
2018-06-18T06:25:36.297Z,990.06
2018-06-18T06:26:36.247Z,990.09
2018-06-18T06:27:36.197Z,990.07
2018-06-18T06:28:36.139Z,990.04
2018-06-18T06:29:36.136Z,990.00
2018-06-18T06:30:36.036Z,990.07
2018-06-18T06:31:35.986Z,990.03
2018-06-18T06:32:35.930Z,990.06
2018-06-18T06:33:35.880Z,990.09
2018-06-18T06:34:35.825Z,990.06
2018-06-18T06:35:35.771Z,990.08
2018-06-18T06:36:35.719Z,990.04
2018-06-18T06:37:35.672Z,990.09
2018-06-18T06:38:35.617Z,990.07
2018-06-18T06:39:35.565Z,990.02
2018-06-18T06:40:35.512Z,990.10
2018-06-18T06:41:35.460Z,990.09
2018-06-18T06:42:35.410Z,990.13
2018-06-18T06:43:35.353Z,990.09
2018-06-18T06:44:35.301Z,990.12
2018-06-18T06:45:35.250Z,990.16
2018-06-18T06:46:35.197Z,990.12
2018-06-18T06:47:35.156Z,990.12
2018-06-18T06:48:35.948Z,990.13
2018-06-18T06:49:35.044Z,990.13
2018-06-18T06:50:34.993Z,990.13
2018-06-18T06:51:34.936Z,990.18
2018-06-18T06:52:34.884Z,990.20
2018-06-18T06:53:34.833Z,990.22
2018-06-18T06:54:34.781Z,990.21
2018-06-18T06:55:34.731Z,990.20
2018-06-18T06:56:34.678Z,990.24
2018-06-18T06:57:34.626Z,990.22
2018-06-18T06:58:34.575Z,990.24
2018-06-18T06:59:34.521Z,990.28
2018-06-18T07:00:34.471Z,990.27
2018-06-18T07:01:34.418Z,990.31
2018-06-18T07:02:34.372Z,990.28
2018-06-18T07:03:34.315Z,990.31
2018-06-18T07:04:34.264Z,990.36
2018-06-18T07:05:34.212Z,990.28
2018-06-18T07:06:34.163Z,990.29
2018-06-18T07:07:34.107Z,990.34
2018-06-18T07:08:34.055Z,990.34
2018-06-18T07:09:34.005Z,990.34
2018-06-18T07:10:33.955Z,990.35
2018-06-18T07:11:33.900Z,990.34
2018-06-18T07:12:33.871Z,990.37
2018-06-18T07:13:33.876Z,990.32
2018-06-18T07:14:33.745Z,990.30
2018-06-18T07:15:33.694Z,990.32
2018-06-18T07:16:33.641Z,990.33
2018-06-18T07:17:33.590Z,990.34
2018-06-18T07:18:33.540Z,990.39
2018-06-18T07:19:33.486Z,990.35
2018-06-18T07:20:33.438Z,990.38
2018-06-18T07:21:33.386Z,990.37
2018-06-18T07:22:33.392Z,990.34
2018-06-18T07:23:33.285Z,990.30
2018-06-18T07:24:33.228Z,990.36
2018-06-18T07:25:33.180Z,990.39
2018-06-18T07:26:33.126Z,990.34
2018-06-18T07:27:33.077Z,990.41
2018-06-18T07:28:33.024Z,990.33
2018-06-18T07:29:32.974Z,990.33
2018-06-18T07:30:33.103Z,990.33
2018-06-18T07:31:32.869Z,990.29
2018-06-18T07:32:32.818Z,990.30
2018-06-18T07:33:32.766Z,990.27
2018-06-18T07:34:32.715Z,990.27
2018-06-18T07:35:32.665Z,990.34
2018-06-18T07:36:32.612Z,990.34
2018-06-18T07:37:32.567Z,990.33
2018-06-18T07:38:32.581Z,990.32
2018-06-18T07:39:32.461Z,990.33
2018-06-18T07:40:32.407Z,990.29
2018-06-18T07:41:32.404Z,990.29
2018-06-18T07:42:32.305Z,990.34
2018-06-18T07:43:32.253Z,990.28
2018-06-18T07:44:32.201Z,990.33
2018-06-18T07:45:32.174Z,990.29
2018-06-18T07:46:32.109Z,990.30
2018-06-18T07:47:32.050Z,990.29
2018-06-18T07:48:31.997Z,990.31
2018-06-18T07:49:31.950Z,990.27
2018-06-18T07:50:31.901Z,990.25
2018-06-18T07:51:31.911Z,990.26
2018-06-18T07:52:31.798Z,990.23
2018-06-18T07:53:31.745Z,990.23
2018-06-18T07:54:31.696Z,990.27
2018-06-18T07:55:31.642Z,990.30
2018-06-18T07:56:31.593Z,990.31
2018-06-18T07:57:31.574Z,990.30
2018-06-18T07:58:31.490Z,990.27
2018-06-18T07:59:31.436Z,990.34
2018-06-18T08:00:31.385Z,990.32
2018-06-18T08:01:31.337Z,990.28
2018-06-18T08:02:31.284Z,990.30
2018-06-18T08:03:31.246Z,990.25
2018-06-18T08:04:31.183Z,990.32
2018-06-18T08:05:31.132Z,990.30
2018-06-18T08:06:31.080Z,990.33
2018-06-18T08:07:31.029Z,990.27
2018-06-18T08:08:30.979Z,990.30
2018-06-18T08:09:30.932Z,990.28
2018-06-18T08:10:30.879Z,990.30
2018-06-18T08:11:30.825Z,990.22
2018-06-18T08:12:30.774Z,990.32
2018-06-18T08:13:30.727Z,990.29
2018-06-18T08:14:30.676Z,990.36
2018-06-18T08:15:30.622Z,990.34
2018-06-18T08:16:30.571Z,990.34
2018-06-18T08:17:30.523Z,990.37
2018-06-18T08:18:30.470Z,990.32
2018-06-18T08:19:30.420Z,990.31
2018-06-18T08:20:30.399Z,990.34
2018-06-18T08:21:30.317Z,990.29
2018-06-18T08:22:30.270Z,990.33
2018-06-18T08:23:30.216Z,990.32
2018-06-18T08:24:30.165Z,990.29
2018-06-18T08:25:30.114Z,990.35
2018-06-18T08:26:30.065Z,990.33
2018-06-18T08:27:30.014Z,990.35
2018-06-18T08:28:29.962Z,990.36
2018-06-18T08:29:29.917Z,990.36
2018-06-18T08:30:29.859Z,990.42
2018-06-18T08:31:29.808Z,990.43
2018-06-18T08:32:29.763Z,990.41
2018-06-18T08:33:29.709Z,990.43
2018-06-18T08:34:29.658Z,990.45
2018-06-18T08:35:29.606Z,990.43
2018-06-18T08:36:29.554Z,990.48
2018-06-18T08:37:29.504Z,990.42
2018-06-18T08:38:29.453Z,990.39
2018-06-18T08:39:29.419Z,990.34
2018-06-18T08:40:29.353Z,990.41
2018-06-18T08:41:29.302Z,990.44
2018-06-18T08:42:29.249Z,990.41
2018-06-18T08:43:29.198Z,990.45
2018-06-18T08:44:29.149Z,990.47
2018-06-18T08:45:29.101Z,990.44
2018-06-18T08:46:29.048Z,990.40
2018-06-18T08:47:28.996Z,990.45
2018-06-18T08:48:28.943Z,990.45
2018-06-18T08:49:28.896Z,990.42
2018-06-18T08:50:28.845Z,990.41
2018-06-18T08:51:28.794Z,990.42
2018-06-18T08:52:28.741Z,990.44
2018-06-18T08:53:28.693Z,990.43
2018-06-18T08:54:28.643Z,990.45
2018-06-18T08:55:28.590Z,990.41
2018-06-18T08:56:28.538Z,990.43
2018-06-18T08:57:28.487Z,990.45
2018-06-18T08:58:28.442Z,990.42
2018-06-18T08:59:28.386Z,990.41
2018-06-18T09:00:28.334Z,990.45
2018-06-18T09:01:28.285Z,990.42
2018-06-18T09:02:28.233Z,990.45
2018-06-18T09:03:28.181Z,990.35
2018-06-18T09:04:28.132Z,990.38
2018-06-18T09:05:28.081Z,990.40
2018-06-18T09:06:28.031Z,990.44
2018-06-18T09:07:27.982Z,990.42
2018-06-18T09:08:27.928Z,990.40
2018-06-18T09:09:27.878Z,990.36
2018-06-18T09:10:27.886Z,990.40
2018-06-18T09:11:27.781Z,990.42
2018-06-18T09:12:27.726Z,990.49
2018-06-18T09:13:27.677Z,990.46
2018-06-18T09:14:27.628Z,990.48
2018-06-18T09:15:27.576Z,990.43
2018-06-18T09:16:27.526Z,990.51
2018-06-18T09:17:27.477Z,990.48
2018-06-18T09:18:27.424Z,990.51
2018-06-18T09:19:27.375Z,990.46
2018-06-18T09:20:27.323Z,990.43
2018-06-18T09:21:27.272Z,990.50
2018-06-18T09:22:27.222Z,990.39
2018-06-18T09:23:27.175Z,990.43
2018-06-18T09:24:27.126Z,990.37
2018-06-18T09:25:27.071Z,990.40
2018-06-18T09:26:27.021Z,990.40
2018-06-18T09:27:26.971Z,990.48
2018-06-18T09:28:26.920Z,990.47
2018-06-18T09:29:26.869Z,990.43
2018-06-18T09:30:26.823Z,990.38
2018-06-18T09:31:26.768Z,990.38
2018-06-18T09:32:26.804Z,990.42
2018-06-18T09:33:26.668Z,990.42
2018-06-18T09:34:26.619Z,990.37
2018-06-18T09:35:26.571Z,990.46
2018-06-18T09:36:26.519Z,990.44
2018-06-18T09:37:26.472Z,990.30
2018-06-18T09:38:26.419Z,990.34
2018-06-18T09:39:26.368Z,990.30
2018-06-18T09:40:26.318Z,990.36
2018-06-18T09:41:26.267Z,990.33
2018-06-18T09:42:26.219Z,990.35
2018-06-18T09:43:26.165Z,990.41
2018-06-18T09:44:26.117Z,990.44
2018-06-18T09:45:26.067Z,990.41
2018-06-18T09:46:26.023Z,990.33
2018-06-18T09:47:25.965Z,990.28
2018-06-18T09:48:25.919Z,990.26
2018-06-18T09:49:25.864Z,990.28
2018-06-18T09:50:25.815Z,990.40
2018-06-18T09:51:25.767Z,990.40
2018-06-18T09:52:25.715Z,990.44
2018-06-18T09:53:25.668Z,990.41
2018-06-18T09:54:25.612Z,990.36
2018-06-18T09:55:25.563Z,990.35
2018-06-18T09:56:25.512Z,990.35
2018-06-18T09:57:25.461Z,990.36
2018-06-18T09:58:25.411Z,990.38
2018-06-18T09:59:25.362Z,990.39
2018-06-18T10:00:25.320Z,990.42
2018-06-18T10:01:25.260Z,990.36
2018-06-18T10:02:25.282Z,990.42
2018-06-18T10:03:25.158Z,990.40
2018-06-18T10:04:25.113Z,990.40
2018-06-18T10:05:25.063Z,990.37
2018-06-18T10:06:25.008Z,990.31
2018-06-18T10:07:24.957Z,990.35
2018-06-18T10:08:25.095Z,990.38
2018-06-18T10:09:24.857Z,990.31
2018-06-18T10:10:24.811Z,990.29
2018-06-18T10:11:24.757Z,990.32
2018-06-18T10:12:24.708Z,990.32
2018-06-18T10:13:24.659Z,990.31
2018-06-18T10:14:24.644Z,990.31
2018-06-18T10:15:24.559Z,990.24
2018-06-18T10:16:24.509Z,990.26
2018-06-18T10:17:24.460Z,990.19
2018-06-18T10:18:24.411Z,990.19
2018-06-18T10:19:24.363Z,990.35
2018-06-18T10:20:24.314Z,990.23
2018-06-18T10:21:24.265Z,990.16
2018-06-18T10:22:24.215Z,990.17
2018-06-18T10:23:24.166Z,990.13
2018-06-18T10:24:24.152Z,990.17
2018-06-18T10:25:24.071Z,990.09
2018-06-18T10:26:24.020Z,990.09
2018-06-18T10:27:23.970Z,990.16
2018-06-18T10:28:23.921Z,990.08
2018-06-18T10:29:23.874Z,990.07
2018-06-18T10:30:23.825Z,990.12
2018-06-18T10:31:23.777Z,990.13
2018-06-18T10:32:23.729Z,990.10
2018-06-18T10:33:23.679Z,990.05
2018-06-18T10:34:23.628Z,990.06
2018-06-18T10:35:23.581Z,990.10
2018-06-18T10:36:23.531Z,990.09
2018-06-18T10:37:23.481Z,990.06
2018-06-18T10:38:23.434Z,990.00
2018-06-18T10:39:23.384Z,990.09
2018-06-18T10:40:23.334Z,990.02
2018-06-18T10:41:23.291Z,990.03
2018-06-18T10:42:23.239Z,990.03
2018-06-18T10:43:23.191Z,990.08
2018-06-18T10:44:23.135Z,990.07
2018-06-18T10:45:23.088Z,990.04
2018-06-18T10:46:23.039Z,990.06
2018-06-18T10:47:22.989Z,990.03
2018-06-18T10:48:22.940Z,990.03
2018-06-18T10:49:22.891Z,990.06
2018-06-18T10:50:22.841Z,990.08
2018-06-18T10:51:22.791Z,990.04
2018-06-18T10:52:22.743Z,990.05
2018-06-18T10:53:22.696Z,990.01
2018-06-18T10:54:22.645Z,990.00
2018-06-18T10:55:22.594Z,989.98
2018-06-18T10:56:22.547Z,990.00
2018-06-18T10:57:22.495Z,989.98
2018-06-18T10:58:22.445Z,989.94
2018-06-18T10:59:22.398Z,989.99
2018-06-18T11:00:22.346Z,989.94
2018-06-18T11:01:22.300Z,989.94
2018-06-18T11:02:22.248Z,990.00
2018-06-18T11:03:22.201Z,990.00
2018-06-18T11:04:22.148Z,989.96
2018-06-18T11:05:22.105Z,989.95
2018-06-18T11:06:22.051Z,989.95
2018-06-18T11:07:22.003Z,989.99
2018-06-18T11:08:21.952Z,990.11
2018-06-18T11:09:21.903Z,990.04
2018-06-18T11:10:21.856Z,990.00
2018-06-18T11:11:21.803Z,989.98
2018-06-18T11:12:21.759Z,989.96
2018-06-18T11:13:21.706Z,989.94
2018-06-18T11:14:21.661Z,989.95
2018-06-18T11:15:21.607Z,989.93
2018-06-18T11:16:21.795Z,990.06
2018-06-18T11:17:21.737Z,990.00
2018-06-18T11:18:21.460Z,989.97
2018-06-18T11:19:21.416Z,989.96
2018-06-18T11:20:21.364Z,989.95
2018-06-18T11:21:21.315Z,989.95
2018-06-18T11:22:21.264Z,989.97
2018-06-18T11:23:21.216Z,989.97
2018-06-18T11:24:21.178Z,989.91
2018-06-18T11:25:21.250Z,989.94
2018-06-18T11:26:21.099Z,990.02
2018-06-18T11:27:21.086Z,989.98
2018-06-18T11:28:21.032Z,989.95
2018-06-18T11:29:20.926Z,989.92
2018-06-18T11:30:20.876Z,989.90
2018-06-18T11:31:20.899Z,989.87
2018-06-18T11:32:20.821Z,989.89
2018-06-18T11:33:20.735Z,989.86
2018-06-18T11:34:20.682Z,989.87
2018-06-18T11:35:20.633Z,989.85
2018-06-18T11:36:20.585Z,989.83
2018-06-18T11:37:20.537Z,989.87
2018-06-18T11:38:20.487Z,989.82
2018-06-18T11:39:20.510Z,989.77
2018-06-18T11:40:20.391Z,989.83
2018-06-18T11:41:20.344Z,989.83
2018-06-18T11:42:20.393Z,989.80
2018-06-18T11:43:20.302Z,989.80
2018-06-18T11:44:20.199Z,989.85
2018-06-18T11:45:20.150Z,989.83
2018-06-18T11:46:20.106Z,989.86
2018-06-18T11:47:20.053Z,989.83
2018-06-18T11:48:20.071Z,989.83
2018-06-18T11:49:19.962Z,989.76
2018-06-18T11:50:20.015Z,989.78
2018-06-18T11:51:19.868Z,989.76
2018-06-18T11:52:19.866Z,989.67
2018-06-18T11:53:19.765Z,989.72
2018-06-18T11:54:19.755Z,989.75
2018-06-18T11:55:19.672Z,989.82
2018-06-18T11:56:19.621Z,989.73
2018-06-18T11:57:19.573Z,989.76
2018-06-18T11:58:19.565Z,989.76
2018-06-18T11:59:19.477Z,989.73
2018-06-18T12:00:19.430Z,989.69
2018-06-18T12:01:19.429Z,989.68
2018-06-18T12:02:19.335Z,989.64
2018-06-18T12:03:19.287Z,989.64
2018-06-18T12:04:19.246Z,989.62
2018-06-18T12:05:19.191Z,989.64
2018-06-18T12:06:19.144Z,989.65
2018-06-18T12:07:19.133Z,989.68
2018-06-18T12:08:19.050Z,989.72
2018-06-18T12:09:19.004Z,989.68
2018-06-18T12:10:18.954Z,989.70
2018-06-18T12:11:18.903Z,989.73
2018-06-18T12:12:18.859Z,989.76
2018-06-18T12:13:18.809Z,989.75
2018-06-18T12:14:18.762Z,989.71
2018-06-18T12:15:18.715Z,989.68
2018-06-18T12:16:18.666Z,989.69
2018-06-18T12:17:18.618Z,989.67
2018-06-18T12:18:18.574Z,989.61
2018-06-18T12:19:18.523Z,989.65
2018-06-18T12:20:18.476Z,989.62
2018-06-18T12:21:18.432Z,989.56
2018-06-18T12:22:18.402Z,989.54
2018-06-18T12:23:18.333Z,989.48
2018-06-18T12:24:18.286Z,989.48
2018-06-18T12:25:18.240Z,989.52
2018-06-18T12:26:18.191Z,989.47
2018-06-18T12:27:18.142Z,989.52
2018-06-18T12:28:18.096Z,989.45